createdAt,value
2018-06-17T00:00:16.535Z,7.10
2018-06-17T00:02:45.105Z,7.37
2018-06-17T00:05:13.589Z,6.67
2018-06-17T00:07:42.086Z,6.57
2018-06-17T00:10:10.643Z,8.03
2018-06-17T00:12:39.130Z,7.27
2018-06-17T00:15:07.612Z,6.73
2018-06-17T00:17:36.244Z,7.87
2018-06-17T00:20:04.919Z,6.70
2018-06-17T00:22:33.529Z,6.37
2018-06-17T00:25:02.070Z,7.70
2018-06-17T00:27:30.512Z,7.20
2018-06-17T00:29:59.033Z,6.50
2018-06-17T00:32:27.507Z,6.60
2018-06-17T00:34:56.013Z,6.67
2018-06-17T00:37:24.508Z,6.50
2018-06-17T00:39:53.074Z,7.33
2018-06-17T00:42:21.580Z,6.30
2018-06-17T00:44:50.104Z,6.23
2018-06-17T00:47:18.634Z,6.20
2018-06-17T00:49:47.068Z,6.10
2018-06-17T00:52:15.524Z,6.30
2018-06-17T00:54:44.026Z,5.60
2018-06-17T00:57:23.699Z,6.70
2018-06-17T00:59:52.167Z,5.93
2018-06-17T01:02:20.608Z,5.50
2018-06-17T01:04:49.100Z,5.97
2018-06-17T01:07:17.619Z,5.40
2018-06-17T01:09:46.047Z,5.53
2018-06-17T01:12:14.531Z,4.77
2018-06-17T01:14:43.019Z,6.17
2018-06-17T01:17:11.491Z,4.90
2018-06-17T01:19:40.135Z,4.50
2018-06-17T01:22:08.747Z,5.30
2018-06-17T01:24:37.195Z,4.70
2018-06-17T01:27:05.697Z,4.47
2018-06-17T01:29:34.273Z,4.43
2018-06-17T01:32:02.734Z,4.77
2018-06-17T01:34:31.215Z,4.40
2018-06-17T01:36:59.688Z,4.50
2018-06-17T01:39:28.168Z,4.40
2018-06-17T01:41:56.608Z,3.70
2018-06-17T01:44:25.083Z,3.87
2018-06-17T01:46:53.537Z,5.47
2018-06-17T01:49:22.036Z,3.70
2018-06-17T01:51:50.497Z,4.20
2018-06-17T01:54:18.956Z,4.50
2018-06-17T01:56:47.500Z,4.57
2018-06-17T01:59:15.984Z,4.03
2018-06-17T02:01:44.449Z,4.10
2018-06-17T02:04:18.076Z,3.83
2018-06-17T02:06:51.867Z,4.20
2018-06-17T02:09:25.589Z,4.60
2018-06-17T02:11:59.519Z,4.43
2018-06-17T02:14:33.339Z,3.73
2018-06-17T02:17:01.875Z,4.40
2018-06-17T02:19:30.019Z,4.70
2018-06-17T02:21:58.490Z,4.67
2018-06-17T02:24:26.951Z,4.20
2018-06-17T02:26:55.458Z,4.37
2018-06-17T02:29:23.949Z,3.53
2018-06-17T02:31:52.441Z,4.47
2018-06-17T02:34:21.002Z,4.60
2018-06-17T02:36:49.483Z,4.60
2018-06-17T02:39:18.021Z,3.93
2018-06-17T02:41:46.417Z,4.30
2018-06-17T02:44:14.879Z,4.23
2018-06-17T02:46:49.408Z,3.53
2018-06-17T02:49:23.209Z,4.30
2018-06-17T02:51:57.064Z,4.20
2018-06-17T02:54:34.618Z,4.60
2018-06-17T02:57:04.198Z,4.00
2018-06-17T02:59:32.711Z,4.13
2018-06-17T03:02:01.464Z,4.63
2018-06-17T03:04:30.355Z,4.10
2018-06-17T03:06:58.847Z,4.07
2018-06-17T03:09:27.263Z,3.77
2018-06-17T03:11:56.096Z,4.30
2018-06-17T03:14:24.578Z,3.40
2018-06-17T03:16:53.151Z,2.87
2018-06-17T03:19:22.150Z,3.90
2018-06-17T03:21:50.634Z,3.70
2018-06-17T03:24:23.303Z,4.53
2018-06-17T03:26:57.175Z,3.70
2018-06-17T03:29:30.999Z,3.70
2018-06-17T03:32:04.713Z,3.90
2018-06-17T03:34:33.222Z,4.07
2018-06-17T03:37:01.700Z,4.13
2018-06-17T03:39:30.196Z,3.60
2018-06-17T03:41:58.684Z,5.27
2018-06-17T03:44:27.151Z,4.30
2018-06-17T03:46:55.605Z,4.10
2018-06-17T03:49:24.082Z,4.00
2018-06-17T03:51:52.605Z,4.10
2018-06-17T03:54:21.203Z,3.63
2018-06-17T03:56:49.668Z,2.53
2018-06-17T03:59:18.166Z,2.90
2018-06-17T04:01:46.615Z,4.10
2018-06-17T04:04:15.077Z,3.70
2018-06-17T04:06:43.543Z,2.77
2018-06-17T04:09:12.015Z,3.40
2018-06-17T04:11:40.500Z,2.67
2018-06-17T04:14:08.971Z,2.93
2018-06-17T04:16:37.476Z,3.27
2018-06-17T04:19:12.499Z,2.83
2018-06-17T04:21:40.959Z,3.47
2018-06-17T04:24:09.109Z,3.57
2018-06-17T04:26:37.609Z,3.50
2018-06-17T04:29:06.064Z,3.03
2018-06-17T04:31:34.673Z,2.93
2018-06-17T04:34:03.154Z,3.37
2018-06-17T04:36:31.659Z,2.90
2018-06-17T04:39:00.958Z,2.80
2018-06-17T04:41:29.241Z,2.80
2018-06-17T04:43:57.714Z,2.43
2018-06-17T04:46:25.861Z,3.13
2018-06-17T04:48:54.450Z,1.90
2018-06-17T04:51:22.908Z,2.70
2018-06-17T04:53:51.386Z,2.57
2018-06-17T04:56:19.859Z,2.47
2018-06-17T04:58:48.364Z,2.73
2018-06-17T05:01:16.815Z,2.50
2018-06-17T05:03:45.283Z,3.37
2018-06-17T05:06:13.815Z,3.10
2018-06-17T05:08:42.278Z,3.20
2018-06-17T05:11:10.799Z,2.70
2018-06-17T05:13:39.288Z,2.70
2018-06-17T05:16:07.751Z,3.67
2018-06-17T05:18:36.226Z,3.00
2018-06-17T05:21:04.670Z,3.37
2018-06-17T05:23:33.201Z,3.00
2018-06-17T05:26:01.672Z,3.60
2018-06-17T05:28:30.146Z,2.80
2018-06-17T05:30:58.652Z,2.87
2018-06-17T05:33:27.199Z,2.93
2018-06-17T05:35:55.718Z,2.63
2018-06-17T05:38:24.297Z,3.00
2018-06-17T05:40:55.723Z,2.70
2018-06-17T05:43:24.291Z,2.80
2018-06-17T05:45:52.800Z,2.83
2018-06-17T05:48:21.259Z,2.47
2018-06-17T05:50:49.714Z,2.97
2018-06-17T05:53:18.142Z,2.63
2018-06-17T05:55:46.796Z,2.77
2018-06-17T05:58:15.222Z,2.50
2018-06-17T06:00:43.681Z,2.50
2018-06-17T06:03:12.136Z,2.70
2018-06-17T06:05:40.616Z,2.50
2018-06-17T06:08:09.094Z,2.77
2018-06-17T06:10:37.533Z,3.03
2018-06-17T06:13:06.007Z,2.63
2018-06-17T06:15:34.462Z,2.70
2018-06-17T06:18:02.956Z,2.40
2018-06-17T06:20:31.403Z,2.63
2018-06-17T06:22:59.882Z,2.70
2018-06-17T06:25:28.315Z,2.63
2018-06-17T06:27:56.763Z,2.57
2018-06-17T06:30:25.228Z,1.97
2018-06-17T06:32:53.692Z,2.23
2018-06-17T06:35:22.128Z,2.23
2018-06-17T06:37:50.572Z,2.47
2018-06-17T06:40:19.044Z,2.70
2018-06-17T06:42:47.592Z,2.03
2018-06-17T06:45:16.077Z,2.60
2018-06-17T06:47:44.507Z,1.87
2018-06-17T06:50:13.257Z,2.20
2018-06-17T06:52:41.840Z,2.90
2018-06-17T06:55:10.478Z,2.00
2018-06-17T06:57:38.975Z,2.40
2018-06-17T07:00:07.457Z,2.17
2018-06-17T07:02:47.360Z,1.80
2018-06-17T07:05:20.994Z,1.60
2018-06-17T07:08:00.745Z,2.10
2018-06-17T07:10:30.287Z,2.30
2018-06-17T07:12:58.788Z,2.27
2018-06-17T07:15:39.793Z,2.30
2018-06-17T07:18:20.873Z,1.87
2018-06-17T07:20:49.396Z,1.73
2018-06-17T07:23:17.959Z,1.73
2018-06-17T07:26:57.152Z,2.00
2018-06-17T07:29:38.251Z,1.77
2018-06-17T07:32:06.782Z,1.90
2018-06-17T07:34:35.310Z,2.00
2018-06-17T07:37:04.223Z,1.67
2018-06-17T07:41:42.764Z,1.83
2018-06-17T07:44:11.397Z,1.90
2018-06-17T07:46:40.088Z,2.10
2018-06-17T07:49:30.385Z,2.03
2018-06-17T07:52:12.395Z,2.17
2018-06-17T07:54:41.823Z,2.03
2018-06-17T07:57:11.495Z,1.80
2018-06-17T07:59:40.993Z,2.20
2018-06-17T08:02:10.342Z,1.80
2018-06-17T08:04:39.031Z,1.63
2018-06-17T08:07:08.124Z,1.97
2018-06-17T08:09:36.733Z,2.27
2018-06-17T08:12:05.921Z,1.90
2018-06-17T08:14:34.443Z,1.80
2018-06-17T08:17:02.929Z,1.70
2018-06-17T08:19:31.646Z,1.77
2018-06-17T08:22:00.782Z,1.50
2018-06-17T08:24:29.652Z,1.93
2018-06-17T08:26:58.246Z,1.57
2018-06-17T08:29:26.710Z,2.10
2018-06-17T08:31:55.498Z,1.40
2018-06-17T08:34:24.175Z,1.60
2018-06-17T08:36:52.778Z,1.87
2018-06-17T08:39:22.379Z,1.80
2018-06-17T08:41:51.011Z,1.50
2018-06-17T08:44:20.347Z,1.90
2018-06-17T08:46:49.716Z,1.90
2018-06-17T08:49:18.621Z,1.87
2018-06-17T08:51:47.191Z,1.53
2018-06-17T08:54:15.832Z,1.90
2018-06-17T08:56:44.372Z,2.10
2018-06-17T08:59:12.897Z,1.70
2018-06-17T09:01:41.483Z,1.80
2018-06-17T09:04:10.075Z,2.10
2018-06-17T09:06:38.587Z,1.80
2018-06-17T09:09:08.954Z,2.20
2018-06-17T09:11:37.843Z,1.87
2018-06-17T09:14:06.522Z,1.80
2018-06-17T09:16:35.191Z,1.50
2018-06-17T09:19:03.758Z,2.13
2018-06-17T09:21:32.251Z,2.03
2018-06-17T09:24:00.921Z,1.83
2018-06-17T09:26:29.424Z,2.30
2018-06-17T09:28:57.999Z,1.70
2018-06-17T09:31:26.534Z,2.40
2018-06-17T09:33:55.045Z,2.27
2018-06-17T09:36:23.528Z,1.73
2018-06-17T09:38:52.042Z,2.13
2018-06-17T09:41:20.555Z,2.20
2018-06-17T09:43:49.231Z,1.83
2018-06-17T09:46:17.714Z,1.97
2018-06-17T09:48:46.214Z,1.97
2018-06-17T09:51:14.727Z,2.13
2018-06-17T09:53:43.567Z,1.90
2018-06-17T09:56:12.109Z,2.10
2018-06-17T09:58:41.039Z,1.93
2018-06-17T10:01:09.823Z,1.70
2018-06-17T10:03:38.455Z,1.40
2018-06-17T10:06:07.049Z,1.83
2018-06-17T10:08:35.535Z,1.60
2018-06-17T10:11:06.055Z,1.60
2018-06-17T10:13:37.010Z,1.83
2018-06-17T10:16:05.757Z,1.80
2018-06-17T10:18:33.917Z,1.80
2018-06-17T10:21:02.454Z,1.70
2018-06-17T10:23:30.932Z,1.90
2018-06-17T10:25:59.441Z,1.83
2018-06-17T10:28:28.933Z,1.87
2018-06-17T10:30:58.597Z,1.80
2018-06-17T10:33:27.094Z,1.60
2018-06-17T10:35:55.774Z,1.60
2018-06-17T10:38:24.327Z,2.33
2018-06-17T10:40:52.818Z,1.50
2018-06-17T10:43:22.773Z,2.00
2018-06-17T10:45:51.260Z,2.13
2018-06-17T10:48:19.775Z,1.93
2018-06-17T10:50:48.244Z,1.80
2018-06-17T10:53:16.723Z,1.80
2018-06-17T10:55:45.335Z,2.00
2018-06-17T10:58:13.743Z,2.00
2018-06-17T11:00:42.254Z,1.93
2018-06-17T11:03:10.768Z,2.03
2018-06-17T11:05:39.561Z,1.93
2018-06-17T11:08:08.010Z,2.00
2018-06-17T11:10:36.872Z,2.30
2018-06-17T11:13:05.603Z,1.87
2018-06-17T11:15:34.139Z,1.90
2018-06-17T11:18:02.600Z,1.70
2018-06-17T11:20:31.111Z,1.77
2018-06-17T11:22:59.601Z,1.80
2018-06-17T11:25:27.778Z,1.93
2018-06-17T11:27:56.236Z,1.83
2018-06-17T11:30:24.716Z,1.77
2018-06-17T11:32:53.202Z,2.10
2018-06-17T11:35:21.736Z,2.03
2018-06-17T11:37:50.249Z,2.37
2018-06-17T11:40:18.749Z,2.27
2018-06-17T11:42:47.301Z,2.37
2018-06-17T11:45:15.774Z,1.67
2018-06-17T11:47:44.282Z,2.30
2018-06-17T11:50:12.771Z,1.57
2018-06-17T11:52:41.266Z,1.80
2018-06-17T11:55:09.790Z,2.00
2018-06-17T11:57:38.355Z,1.80
2018-06-17T12:00:07.228Z,2.23
2018-06-17T12:02:35.785Z,1.90
2018-06-17T12:05:04.308Z,1.80
2018-06-17T12:07:32.793Z,2.17
2018-06-17T12:10:01.305Z,2.40
2018-06-17T12:12:29.782Z,2.10
2018-06-17T12:14:58.295Z,1.93
2018-06-17T12:17:26.786Z,2.73
2018-06-17T12:19:55.321Z,2.00
2018-06-17T12:22:23.794Z,1.80
2018-06-17T12:24:52.296Z,2.20
2018-06-17T12:27:20.785Z,2.47
2018-06-17T12:29:49.254Z,1.87
2018-06-17T12:32:17.901Z,2.07
2018-06-17T12:34:46.406Z,2.67
2018-06-17T12:37:14.911Z,2.40
2018-06-17T12:39:43.451Z,2.27
2018-06-17T12:42:12.100Z,2.00
2018-06-17T12:44:40.601Z,1.90
2018-06-17T12:47:09.123Z,2.17
2018-06-17T12:49:37.726Z,2.23
2018-06-17T12:52:06.390Z,2.13
2018-06-17T12:54:34.907Z,2.17
2018-06-17T12:57:03.441Z,2.50
2018-06-17T12:59:31.884Z,1.93
2018-06-17T13:02:00.408Z,2.27
2018-06-17T13:04:28.977Z,1.93
2018-06-17T13:06:57.489Z,1.93
2018-06-17T13:09:25.967Z,1.70
2018-06-17T13:11:54.447Z,1.60
2018-06-17T13:14:22.958Z,2.10
2018-06-17T13:16:51.480Z,1.93
2018-06-17T13:19:20.036Z,1.57
2018-06-17T13:21:48.543Z,2.47
2018-06-17T13:24:17.052Z,1.43
2018-06-17T13:26:45.608Z,2.03
2018-06-17T13:29:14.102Z,1.73
2018-06-17T13:31:42.618Z,1.80
2018-06-17T13:34:11.118Z,1.70
2018-06-17T13:36:39.584Z,1.70
2018-06-17T13:39:08.576Z,1.57
2018-06-17T13:41:37.363Z,1.60
2018-06-17T13:44:05.934Z,1.47
2018-06-17T13:46:34.969Z,1.40
2018-06-17T13:49:03.687Z,1.57
2018-06-17T13:51:32.387Z,1.83
2018-06-17T13:54:00.921Z,1.60
2018-06-17T13:56:29.885Z,2.10
2018-06-17T13:58:58.607Z,2.27
2018-06-17T14:01:27.262Z,1.80
2018-06-17T14:03:55.723Z,1.93
2018-06-17T14:06:24.598Z,1.70
2018-06-17T14:08:53.318Z,2.03
2018-06-17T14:11:22.148Z,1.93
2018-06-17T14:13:50.987Z,1.80
2018-06-17T14:16:19.510Z,1.83
2018-06-17T14:18:48.143Z,1.67
2018-06-17T14:21:16.704Z,1.70
2018-06-17T14:23:45.343Z,2.10
2018-06-17T14:26:13.973Z,2.07
2018-06-17T14:28:42.462Z,2.10
2018-06-17T14:31:11.816Z,2.00
2018-06-17T14:33:40.331Z,1.77
2018-06-17T14:36:09.007Z,1.80
2018-06-17T14:38:37.544Z,2.10
2018-06-17T14:41:11.507Z,2.00
2018-06-17T14:43:45.438Z,2.40
2018-06-17T14:46:19.139Z,1.93
2018-06-17T14:48:53.142Z,1.97
2018-06-17T14:51:26.989Z,1.60
2018-06-17T14:53:55.633Z,1.40
2018-06-17T14:56:24.132Z,1.53
2018-06-17T14:58:53.022Z,1.40
2018-06-17T15:01:21.572Z,1.70
2018-06-17T15:03:50.100Z,1.40
2018-06-17T15:06:18.616Z,1.43
2018-06-17T15:08:47.190Z,1.30
2018-06-17T15:11:15.728Z,2.07
2018-06-17T15:13:44.415Z,1.50
2018-06-17T15:16:12.997Z,1.70
2018-06-17T15:18:41.672Z,1.80
2018-06-17T15:21:10.239Z,1.70
2018-06-17T15:23:38.841Z,1.90
2018-06-17T15:26:07.455Z,1.90
2018-06-17T15:28:36.010Z,2.30
2018-06-17T15:31:09.873Z,1.77
2018-06-17T15:33:43.937Z,1.63
2018-06-17T15:36:17.708Z,1.90
2018-06-17T15:38:54.005Z,1.80
2018-06-17T15:41:25.331Z,2.40
2018-06-17T15:43:55.732Z,2.10
2018-06-17T15:46:24.616Z,2.73
2018-06-17T15:48:53.276Z,2.20
2018-06-17T15:51:21.940Z,1.90
2018-06-17T15:53:50.539Z,1.93
2018-06-17T15:56:19.159Z,1.90
2018-06-17T15:58:47.744Z,2.07
2018-06-17T16:01:16.213Z,1.90
2018-06-17T16:03:44.848Z,2.20
2018-06-17T16:06:13.310Z,2.10
2018-06-17T16:08:41.837Z,3.10
2018-06-17T16:11:10.379Z,2.00
2018-06-17T16:13:44.230Z,2.77
2018-06-17T16:16:18.125Z,2.30
2018-06-17T16:18:51.760Z,2.30
2018-06-17T16:21:20.379Z,1.67
2018-06-17T16:23:48.868Z,2.10
2018-06-17T16:26:17.460Z,2.00
2018-06-17T16:28:45.935Z,2.10
2018-06-17T16:31:14.539Z,2.50
2018-06-17T16:33:43.046Z,2.33
2018-06-17T16:36:11.538Z,2.37
2018-06-17T16:38:40.026Z,1.90
2018-06-17T16:41:08.512Z,2.30
2018-06-17T16:43:37.115Z,2.10
2018-06-17T16:46:05.702Z,1.97
2018-06-17T16:48:34.378Z,3.80
2018-06-17T16:51:08.192Z,2.20
2018-06-17T16:53:41.893Z,2.10
2018-06-17T16:56:15.860Z,1.87
2018-06-17T16:58:49.644Z,1.90
2018-06-17T17:01:18.244Z,2.30
2018-06-17T17:03:46.702Z,2.10
2018-06-17T17:06:15.170Z,2.47
2018-06-17T17:08:43.642Z,2.10
2018-06-17T17:11:12.265Z,2.17
2018-06-17T17:13:40.738Z,2.50
2018-06-17T17:16:09.839Z,2.17
2018-06-17T17:18:38.392Z,2.40
2018-06-17T17:21:07.021Z,2.47
2018-06-17T17:23:35.580Z,1.90
2018-06-17T17:26:04.038Z,2.20
2018-06-17T17:28:32.559Z,2.53
2018-06-17T17:31:01.071Z,2.60
2018-06-17T17:33:34.969Z,3.07
2018-06-17T17:36:08.712Z,2.30
2018-06-17T17:38:42.702Z,5.83
2018-06-17T17:41:11.229Z,4.33
2018-06-17T17:43:39.730Z,3.33
2018-06-17T17:46:13.499Z,7.23
2018-06-17T17:48:42.649Z,4.60
2018-06-17T17:51:11.168Z,3.00
2018-06-17T17:53:39.768Z,2.77
2018-06-17T17:56:08.299Z,3.03
2018-06-17T17:58:36.830Z,10.13
2018-06-17T18:01:05.387Z,3.93
2018-06-17T18:03:34.075Z,3.87
2018-06-17T18:06:02.720Z,3.00
2018-06-17T18:08:31.318Z,2.80
2018-06-17T18:11:00.032Z,2.83
2018-06-17T18:13:28.556Z,2.53
2018-06-17T18:15:57.235Z,2.47
2018-06-17T18:18:25.843Z,2.57
2018-06-17T18:20:54.511Z,2.53
2018-06-17T18:23:23.076Z,2.47
2018-06-17T18:25:56.839Z,2.97
2018-06-17T18:28:30.823Z,3.03
2018-06-17T18:31:04.148Z,2.40
2018-06-17T18:33:38.029Z,2.40
2018-06-17T18:36:09.631Z,2.80
2018-06-17T18:38:40.256Z,2.23
2018-06-17T18:41:09.216Z,2.23
2018-06-17T18:43:38.040Z,2.70
2018-06-17T18:46:06.564Z,2.23
2018-06-17T18:48:36.282Z,2.73
2018-06-17T18:51:04.921Z,3.13
2018-06-17T18:53:33.544Z,2.10
2018-06-17T18:56:02.320Z,2.30
2018-06-17T18:58:30.915Z,2.50
2018-06-17T19:00:59.525Z,2.53
2018-06-17T19:03:28.031Z,2.90
2018-06-17T19:05:57.042Z,3.70
2018-06-17T19:08:31.053Z,2.70
2018-06-17T19:11:04.971Z,2.17
2018-06-17T19:13:38.734Z,3.10
2018-06-17T19:16:14.964Z,2.70
2018-06-17T19:18:43.612Z,2.50
2018-06-17T19:21:12.297Z,3.07
2018-06-17T19:23:40.824Z,2.63
2018-06-17T19:26:09.436Z,2.40
2018-06-17T19:28:38.139Z,2.27
2018-06-17T19:31:06.482Z,2.40
2018-06-17T19:33:35.137Z,3.77
2018-06-17T19:36:03.684Z,2.83
2018-06-17T19:38:32.219Z,2.80
2018-06-17T19:41:00.759Z,3.23
2018-06-17T19:43:29.324Z,3.73
2018-06-17T19:45:57.946Z,2.30
2018-06-17T19:48:26.565Z,3.33
2018-06-17T19:51:00.446Z,2.33
2018-06-17T19:53:34.318Z,2.33
2018-06-17T19:56:08.112Z,2.43
2018-06-17T19:58:41.916Z,2.70
2018-06-17T20:01:10.570Z,3.30
2018-06-17T20:03:39.087Z,2.10
2018-06-17T20:06:07.640Z,2.50
2018-06-17T20:08:36.149Z,2.37
2018-06-17T20:11:04.734Z,1.97
2018-06-17T20:13:33.401Z,2.50
2018-06-17T20:16:01.891Z,1.90
2018-06-17T20:18:30.485Z,2.00
2018-06-17T20:20:59.059Z,2.63
2018-06-17T20:23:27.714Z,2.17
2018-06-17T20:25:56.227Z,2.50
2018-06-17T20:28:24.732Z,2.90
2018-06-17T20:30:53.363Z,2.20
2018-06-17T20:33:27.243Z,2.50
2018-06-17T20:36:01.013Z,2.43
2018-06-17T20:38:35.118Z,2.50
2018-06-17T20:41:09.070Z,2.60
2018-06-17T20:43:42.960Z,2.57
2018-06-17T20:46:11.452Z,2.10
2018-06-17T20:48:39.923Z,2.17
2018-06-17T20:51:08.523Z,2.07
2018-06-17T20:53:37.191Z,2.53
2018-06-17T20:56:06.006Z,2.70
2018-06-17T20:58:34.773Z,2.57
2018-06-17T21:01:03.264Z,2.40
2018-06-17T21:03:31.811Z,2.73
2018-06-17T21:06:00.334Z,2.67
2018-06-17T21:08:28.809Z,2.77
2018-06-17T21:10:57.412Z,2.53
2018-06-17T21:13:25.996Z,2.43
2018-06-17T21:15:54.500Z,2.97
2018-06-17T21:18:28.251Z,3.00
2018-06-17T21:21:02.167Z,2.57
2018-06-17T21:23:35.946Z,2.80
2018-06-17T21:26:09.759Z,2.40
2018-06-17T21:28:38.263Z,2.97
2018-06-17T21:31:06.784Z,2.73
2018-06-17T21:33:35.367Z,2.80
2018-06-17T21:36:03.857Z,2.77
2018-06-17T21:38:32.325Z,3.17
2018-06-17T21:41:00.868Z,2.77
2018-06-17T21:43:29.347Z,2.80
2018-06-17T21:45:57.823Z,2.87
2018-06-17T21:48:26.343Z,2.97
2018-06-17T21:50:54.823Z,3.90
2018-06-17T21:53:22.990Z,2.53
2018-06-17T21:55:53.086Z,3.80
2018-06-17T21:58:27.046Z,3.40
2018-06-17T22:00:55.534Z,3.17
2018-06-17T22:03:24.035Z,3.07
2018-06-17T22:05:52.524Z,2.50
2018-06-17T22:08:26.510Z,2.90
2018-06-17T22:11:00.517Z,3.10
2018-06-17T22:13:33.196Z,3.07
2018-06-17T22:16:07.024Z,3.20
2018-06-17T22:18:35.676Z,2.90
2018-06-17T22:21:04.244Z,4.03
2018-06-17T22:23:32.716Z,3.20
2018-06-17T22:26:01.222Z,2.77
2018-06-17T22:28:29.742Z,3.33
2018-06-17T22:30:58.297Z,3.40
2018-06-17T22:33:26.768Z,2.77
2018-06-17T22:35:55.278Z,3.00
2018-06-17T22:38:23.833Z,3.10
2018-06-17T22:40:52.377Z,3.77
2018-06-17T22:43:20.937Z,3.47
2018-06-17T22:45:49.389Z,3.57
2018-06-17T22:48:17.857Z,3.40
2018-06-17T22:50:46.298Z,3.50
2018-06-17T22:53:25.897Z,3.50
2018-06-17T22:55:54.163Z,3.63
2018-06-17T22:58:27.986Z,3.60
2018-06-17T23:01:01.786Z,3.53
2018-06-17T23:03:35.580Z,3.13
2018-06-17T23:06:09.250Z,3.10
2018-06-17T23:08:42.988Z,3.20
2018-06-17T23:11:11.438Z,2.80
2018-06-17T23:13:39.892Z,2.97
2018-06-17T23:16:08.383Z,3.50
2018-06-17T23:18:36.843Z,2.73
2018-06-17T23:21:05.398Z,3.63
2018-06-17T23:23:33.848Z,3.10
2018-06-17T23:26:02.313Z,3.00
2018-06-17T23:28:30.756Z,2.90
2018-06-17T23:30:59.262Z,4.10
2018-06-17T23:33:27.721Z,3.20
2018-06-17T23:35:56.175Z,3.07
2018-06-17T23:38:24.650Z,3.10
2018-06-17T23:40:53.104Z,3.97
2018-06-17T23:43:21.673Z,3.70
2018-06-17T23:45:55.593Z,3.30
2018-06-17T23:48:29.467Z,3.60
2018-06-17T23:51:03.186Z,3.23
2018-06-17T23:53:37.112Z,3.40
2018-06-17T23:56:08.570Z,2.87
2018-06-17T23:58:38.341Z,3.37
